Time,TemperatureF,DewpointF,PressureIn,WindDirection,WindDirectionDegrees,WindSpeedMPH,WindSpeedGustMPH,Humidity,HourlyPrecipIn,Conditions,Clouds,dailyrainin,SoftwareType,DateUTC
2013-01-06 00:02:00,46.4,45.7,30.27,NNW,347,5.0,6.0,97,0.00,,,0.28,meteohub,2013-01-06 06:02:00,
2013-01-06 00:07:00,46.4,45.7,30.27,WNW,295,2.0,6.0,97,0.00,,,0.00,meteohub,2013-01-06 06:07:00,
2013-01-06 00:12:00,46.4,45.7,30.27,NW,326,5.0,6.0,97,0.00,,,0.00,meteohub,2013-01-06 06:12:00,
2013-01-06 00:17:00,46.4,45.7,30.27,WNW,301,1.0,6.0,97,0.00,,,0.00,meteohub,2013-01-06 06:17:00,
2013-01-06 00:22:00,46.4,45.7,30.27,NW,314,0.0,5.0,97,0.00,,,0.00,meteohub,2013-01-06 06:22:00,
2013-01-06 00:27:00,46.4,45.7,30.27,North,9,2.0,7.0,97,0.00,,,0.00,meteohub,2013-01-06 06:27:00,
2013-01-06 00:32:00,46.6,45.9,30.26,North,349,2.0,7.0,97,0.00,,,0.00,meteohub,2013-01-06 06:32:00,
2013-01-06 00:37:00,46.6,45.9,30.27,NNW,329,0.0,7.0,97,0.00,,,0.00,meteohub,2013-01-06 06:37:00,
2013-01-06 00:42:00,46.6,45.9,30.27,NNE,25,4.0,6.0,97,0.00,,,0.00,meteohub,2013-01-06 06:42:00,
2013-01-06 00:47:00,46.6,45.9,30.26,NW,309,1.0,6.0,97,0.00,,,0.00,meteohub,2013-01-06 06:47:00,
2013-01-06 00:52:00,46.6,45.9,30.26,NW,311,0.0,6.0,97,0.00,,,0.00,meteohub,2013-01-06 06:52:00,
2013-01-06 00:57:00,46.6,45.9,30.27,North,356,0.0,7.0,97,0.00,,,0.00,meteohub,2013-01-06 06:57:00,
2013-01-06 01:02:00,46.6,45.9,30.27,NW,324,5.0,7.0,97,0.00,,,0.00,meteohub,2013-01-06 07:02:00,
2013-01-06 01:07:00,46.6,45.9,30.26,WNW,295,2.0,7.0,97,0.00,,,0.00,meteohub,2013-01-06 07:07:00,
2013-01-06 01:12:00,46.6,45.9,30.26,WSW,246,3.0,5.0,97,0.00,,,0.00,meteohub,2013-01-06 07:12:00,
2013-01-06 01:17:00,46.4,45.7,30.26,SW,236,4.0,6.0,97,0.00,,,0.00,meteohub,2013-01-06 07:17:00,
2013-01-06 01:22:00,46.4,45.7,30.26,NW,307,1.0,6.0,97,0.00,,,0.00,meteohub,2013-01-06 07:22:00,
2013-01-06 01:27:00,46.4,45.7,30.26,NW,322,3.0,6.0,97,0.00,,,0.00,meteohub,2013-01-06 07:27:00,
2013-01-06 01:32:00,46.6,45.5,30.26,NW,321,3.0,8.0,96,0.00,,,0.00,meteohub,2013-01-06 07:32:00,
2013-01-06 01:37:00,46.6,45.5,30.26,NW,321,1.0,8.0,96,0.00,,,0.00,meteohub,2013-01-06 07:37:00,
2013-01-06 01:42:00,46.6,45.5,30.26,WNW,301,1.0,8.0,96,0.00,,,0.00,meteohub,2013-01-06 07:42:00,
2013-01-06 01:47:00,46.6,45.5,30.26,NW,324,0.0,6.0,96,0.00,,,0.00,meteohub,2013-01-06 07:47:00,
2013-01-06 01:52:00,46.6,45.5,30.27,NNW,328,1.0,6.0,96,0.00,,,0.00,meteohub,2013-01-06 07:52:00,
2013-01-06 01:57:00,46.6,45.5,30.27,NW,309,0.0,6.0,96,0.00,,,0.00,meteohub,2013-01-06 07:57:00,
2013-01-06 02:02:00,46.6,45.5,30.27,WNW,295,2.0,6.0,96,0.00,,,0.00,meteohub,2013-01-06 08:02:00,
2013-01-06 02:07:00,46.6,45.5,30.26,WSW,248,7.0,7.0,96,0.00,,,0.00,meteohub,2013-01-06 08:07:00,
2013-01-06 02:12:00,46.6,45.5,30.26,North,6,3.0,8.0,96,0.00,,,0.00,meteohub,2013-01-06 08:12:00,
2013-01-06 02:17:00,46.6,45.9,30.26,NW,314,0.0,8.0,97,0.00,,,0.00,meteohub,2013-01-06 08:17:00,
2013-01-06 02:22:00,46.6,45.9,30.25,WNW,301,3.0,8.0,97,0.00,,,0.00,meteohub,2013-01-06 08:22:00,
2013-01-06 02:27:00,46.6,45.9,30.26,West,277,2.0,8.0,97,0.00,,,0.00,meteohub,2013-01-06 08:27:00,
2013-01-06 02:32:00,46.6,45.9,30.26,WNW,291,1.0,9.0,97,0.00,,,0.00,meteohub,2013-01-06 08:32:00,
2013-01-06 02:37:00,46.6,45.9,30.26,NNW,342,3.0,9.0,97,0.00,,,0.00,meteohub,2013-01-06 08:37:00,
2013-01-06 02:42:00,46.6,45.9,30.26,North,356,4.0,8.0,97,0.00,,,0.00,meteohub,2013-01-06 08:42:00,
2013-01-06 02:47:00,46.4,45.7,30.26,NNW,334,7.0,9.0,97,0.00,,,0.00,meteohub,2013-01-06 08:47:00,
2013-01-06 02:52:00,46.4,45.9,30.26,North,358,6.0,11.0,98,0.00,,,0.00,meteohub,2013-01-06 08:52:00,
2013-01-06 02:57:00,46.4,45.9,30.27,North,350,4.0,11.0,98,0.00,,,0.00,meteohub,2013-01-06 08:57:00,
2013-01-06 03:02:00,46.4,45.9,30.27,WNW,292,4.0,11.0,98,0.00,,,0.00,meteohub,2013-01-06 09:02:00,
2013-01-06 03:07:00,46.2,45.7,30.27,North,354,7.0,11.0,98,0.00,,,0.00,meteohub,2013-01-06 09:07:00,
2013-01-06 03:12:00,46.2,45.7,30.27,NE,44,4.0,11.0,98,0.00,,,0.00,meteohub,2013-01-06 09:12:00,
2013-01-06 03:17:00,46.2,45.7,30.26,WNW,295,3.0,11.0,98,0.00,,,0.00,meteohub,2013-01-06 09:17:00,
2013-01-06 03:22:00,46.2,45.7,30.26,NNW,331,1.0,11.0,98,0.00,,,0.00,meteohub,2013-01-06 09:22:00,
2013-01-06 03:27:00,46.2,45.7,30.26,NNW,332,5.0,10.0,98,0.00,,,0.00,meteohub,2013-01-06 09:27:00,
2013-01-06 03:32:00,46.2,45.7,30.26,NNW,332,3.0,10.0,98,0.00,,,0.00,meteohub,2013-01-06 09:32:00,
2013-01-06 03:37:00,46.2,45.7,30.26,North,8,2.0,9.0,98,0.00,,,0.00,meteohub,2013-01-06 09:37:00,
2013-01-06 03:42:00,46.0,45.5,30.26,NW,326,6.0,8.0,98,0.00,,,0.00,meteohub,2013-01-06 09:42:00,
2013-01-06 03:47:00,46.0,45.5,30.27,NW,326,6.0,8.0,98,0.00,,,0.00,meteohub,2013-01-06 09:47:00,
2013-01-06 03:52:00,45.9,45.3,30.27,NNW,343,3.0,8.0,98,0.00,,,0.00,meteohub,2013-01-06 09:52:00,
2013-01-06 03:57:00,45.9,45.3,30.27,SE,143,0.0,8.0,98,0.00,,,0.00,meteohub,2013-01-06 09:57:00,
2013-01-06 04:02:00,45.9,45.3,30.27,WNW,283,4.0,8.0,98,0.00,,,0.00,meteohub,2013-01-06 10:02:00,
2013-01-06 04:07:00,45.7,45.5,30.26,West,271,0.0,7.0,99,0.00,,,0.00,meteohub,2013-01-06 10:07:00,
2013-01-06 04:12:00,45.7,45.5,30.26,West,281,3.0,7.0,99,0.00,,,0.00,meteohub,2013-01-06 10:12:00,
2013-01-06 04:17:00,45.7,45.5,30.26,NNW,338,2.0,7.0,99,0.00,,,0.00,meteohub,2013-01-06 10:17:00,
2013-01-06 04:22:00,45.7,45.5,30.26,NNW,340,3.0,7.0,99,0.00,,,0.00,meteohub,2013-01-06 10:22:00,
2013-01-06 04:27:00,45.7,45.5,30.26,NNW,327,1.0,7.0,99,0.00,,,0.00,meteohub,2013-01-06 10:27:00,
2013-01-06 04:32:00,45.7,45.5,30.26,WNW,301,1.0,7.0,99,0.00,,,0.00,meteohub,2013-01-06 10:32:00,
2013-01-06 04:37:00,45.7,45.5,30.26,NW,305,1.0,6.0,99,0.00,,,0.00,meteohub,2013-01-06 10:37:00,
2013-01-06 04:42:00,45.7,45.5,30.26,West,266,0.0,8.0,99,0.00,,,0.00,meteohub,2013-01-06 10:42:00,
2013-01-06 04:47:00,45.5,45.3,30.26,NW,318,3.0,8.0,99,0.00,,,0.00,meteohub,2013-01-06 10:47:00,
2013-01-06 04:52:00,45.5,45.3,30.26,NW,305,1.0,8.0,99,0.00,,,0.00,meteohub,2013-01-06 10:52:00,
2013-01-06 04:57:00,45.5,45.3,30.26,West,280,2.0,7.0,99,0.00,,,0.00,meteohub,2013-01-06 10:57:00,
2013-01-06 05:02:00,45.3,45.1,30.26,SW,224,2.0,7.0,99,0.00,,,0.00,meteohub,2013-01-06 11:02:00,
2013-01-06 05:07:00,45.3,45.1,30.26,WNW,293,0.0,4.0,99,0.00,,,0.00,meteohub,2013-01-06 11:07:00,
2013-01-06 05:12:00,45.3,45.1,30.26,NNW,330,3.0,4.0,99,0.00,,,0.00,meteohub,2013-01-06 11:12:00,
2013-01-06 05:17:00,45.1,45.0,30.25,West,271,4.0,7.0,99,0.00,,,0.00,meteohub,2013-01-06 11:17:00,
2013-01-06 05:22:00,45.1,45.0,30.26,West,274,3.0,7.0,99,0.00,,,0.00,meteohub,2013-01-06 11:22:00,
2013-01-06 05:27:00,45.1,45.0,30.25,NNW,335,3.0,7.0,99,0.00,,,0.00,meteohub,2013-01-06 11:27:00,
2013-01-06 05:32:00,45.0,44.8,30.25,WNW,302,6.0,7.0,99,0.00,,,0.00,meteohub,2013-01-06 11:32:00,
2013-01-06 05:37:00,45.0,44.8,30.25,NNW,327,8.0,8.0,99,0.00,,,0.00,meteohub,2013-01-06 11:37:00,
2013-01-06 05:42:00,44.8,44.6,30.26,WNW,292,4.0,10.0,99,0.00,,,0.00,meteohub,2013-01-06 11:42:00,
2013-01-06 05:52:00,44.4,44.2,30.26,WNW,283,1.0,12.0,99,0.00,,,0.00,meteohub,2013-01-06 11:52:00,
2013-01-06 05:57:00,44.2,44.1,30.26,NW,323,9.0,12.0,99,0.00,,,0.00,meteohub,2013-01-06 11:57:00,
2013-01-06 06:02:00,44.2,44.1,30.27,NW,325,4.0,12.0,99,0.00,,,0.00,meteohub,2013-01-06 12:02:00,
2013-01-06 06:07:00,44.2,44.1,30.26,NW,311,3.0,11.0,99,0.00,,,0.00,meteohub,2013-01-06 12:07:00,
2013-01-06 06:12:00,44.2,44.1,30.27,NNW,338,6.0,10.0,99,0.00,,,0.00,meteohub,2013-01-06 12:12:00,
2013-01-06 06:17:00,44.2,43.7,30.27,North,357,5.0,10.0,98,0.00,,,0.00,meteohub,2013-01-06 12:17:00,
2013-01-06 06:22:00,44.1,43.5,30.27,NNW,345,10.0,10.0,98,0.00,,,0.00,meteohub,2013-01-06 12:22:00,
2013-01-06 06:27:00,44.1,43.5,30.26,NW,316,9.0,12.0,98,0.00,,,0.00,meteohub,2013-01-06 12:27:00,
2013-01-06 06:32:00,43.9,43.2,30.27,NNW,329,4.0,12.0,97,0.00,,,0.00,meteohub,2013-01-06 12:32:00,
2013-01-06 06:37:00,43.9,43.2,30.27,NW,322,5.0,12.0,97,0.00,,,0.00,meteohub,2013-01-06 12:37:00,
2013-01-06 06:42:00,43.7,43.0,30.27,NNE,28,5.0,11.0,97,0.00,,,0.00,meteohub,2013-01-06 12:42:00,
2013-01-06 06:47:00,43.5,42.8,30.27,NNW,334,1.0,11.0,97,0.00,,,0.00,meteohub,2013-01-06 12:47:00,
2013-01-06 06:52:00,43.5,42.8,30.28,WNW,302,3.0,11.0,97,0.00,,,0.00,meteohub,2013-01-06 12:52:00,
2013-01-06 06:57:00,43.5,42.8,30.28,NW,321,1.0,8.0,97,0.00,,,0.00,meteohub,2013-01-06 12:57:00,
2013-01-06 07:02:00,43.5,42.8,30.28,ENE,77,1.0,7.0,97,0.00,,,0.00,meteohub,2013-01-06 13:02:00,
2013-01-06 07:07:00,43.3,42.6,30.29,WNW,287,5.0,9.0,97,0.00,,,0.00,meteohub,2013-01-06 13:07:00,
2013-01-06 07:12:00,43.3,42.3,30.29,North,349,4.0,9.0,96,0.00,,,0.00,meteohub,2013-01-06 13:12:00,
2013-01-06 07:17:00,43.3,42.3,30.29,NW,309,3.0,9.0,96,0.00,,,0.00,meteohub,2013-01-06 13:17:00,
2013-01-06 07:22:00,43.3,42.6,30.29,NNW,338,2.0,8.0,97,0.00,,,0.00,meteohub,2013-01-06 13:22:00,
2013-01-06 07:27:00,43.2,42.1,30.30,NW,324,6.0,8.0,96,0.00,,,0.00,meteohub,2013-01-06 13:27:00,
2013-01-06 07:32:00,43.2,42.1,30.30,NNW,345,3.0,9.0,96,0.00,,,0.00,meteohub,2013-01-06 13:32:00,
2013-01-06 07:37:00,43.2,42.4,30.30,NW,321,2.0,9.0,97,0.00,,,0.00,meteohub,2013-01-06 13:37:00,
2013-01-06 07:42:00,43.2,42.4,30.30,NNW,334,3.0,9.0,97,0.00,,,0.00,meteohub,2013-01-06 13:42:00,
2013-01-06 07:47:00,43.2,42.4,30.30,North,351,5.0,9.0,97,0.00,,,0.00,meteohub,2013-01-06 13:47:00,
2013-01-06 07:52:00,43.0,41.9,30.30,NW,318,10.0,10.0,96,0.00,,,0.00,meteohub,2013-01-06 13:52:00,
2013-01-06 07:57:00,42.6,41.5,30.30,NW,323,3.0,11.0,96,0.00,,,0.00,meteohub,2013-01-06 13:57:00,
2013-01-06 08:02:00,42.6,41.5,30.31,NNW,345,3.0,11.0,96,0.00,,,0.00,meteohub,2013-01-06 14:02:00,
2013-01-06 08:07:00,42.6,41.5,30.31,NW,311,4.0,11.0,96,0.00,,,0.00,meteohub,2013-01-06 14:07:00,
2013-01-06 08:17:00,42.6,41.5,30.31,NE,53,0.0,11.0,96,0.00,,,0.00,meteohub,2013-01-06 14:17:00,
2013-01-06 08:22:00,43.0,41.7,30.32,WNW,301,1.0,11.0,95,0.00,,,0.00,meteohub,2013-01-06 14:22:00,
2013-01-06 08:27:00,43.0,41.7,30.32,NNW,345,1.0,10.0,95,0.00,,,0.00,meteohub,2013-01-06 14:27:00,
2013-01-06 08:32:00,43.0,41.7,30.32,NNW,333,0.0,10.0,95,0.00,,,0.00,meteohub,2013-01-06 14:32:00,
2013-01-06 08:37:00,43.2,42.1,30.33,North,11,3.0,8.0,96,0.00,,,0.00,meteohub,2013-01-06 14:37:00,
2013-01-06 08:42:00,43.3,42.1,30.33,NNE,19,2.0,8.0,95,0.00,,,0.00,meteohub,2013-01-06 14:42:00,
2013-01-06 08:47:00,43.5,42.3,30.33,NNW,342,3.0,8.0,95,0.00,,,0.00,meteohub,2013-01-06 14:47:00,
2013-01-06 08:52:00,43.7,42.1,30.33,North,1,3.0,10.0,94,0.00,,,0.00,meteohub,2013-01-06 14:52:00,
2013-01-06 08:57:00,44.1,42.4,30.34,NW,321,5.0,10.0,94,0.00,,,0.00,meteohub,2013-01-06 14:57:00,
2013-01-06 09:02:00,44.4,42.8,30.34,NW,307,4.0,10.0,94,0.00,,,0.00,meteohub,2013-01-06 15:02:00,
2013-01-06 09:07:00,44.8,42.8,30.34,NNW,343,1.0,9.0,93,0.00,,,0.00,meteohub,2013-01-06 15:07:00,
2013-01-06 09:12:00,45.1,43.0,30.34,NW,325,1.0,9.0,92,0.00,,,0.00,meteohub,2013-01-06 15:12:00,
2013-01-06 09:17:00,45.5,43.0,30.34,North,349,5.0,9.0,91,0.00,,,0.00,meteohub,2013-01-06 15:17:00,
2013-01-06 09:22:00,45.9,43.7,30.34,WNW,296,1.0,9.0,92,0.00,,,0.00,meteohub,2013-01-06 15:22:00,
2013-01-06 09:27:00,46.2,43.7,30.34,NW,322,5.0,9.0,91,0.00,,,0.00,meteohub,2013-01-06 15:27:00,
2013-01-06 09:32:00,46.4,43.7,30.34,NW,318,0.0,9.0,90,0.00,,,0.00,meteohub,2013-01-06 15:32:00,
2013-01-06 09:37:00,46.6,43.9,30.35,NNW,334,1.0,8.0,90,0.00,,,0.00,meteohub,2013-01-06 15:37:00,
2013-01-06 09:42:00,46.8,43.7,30.35,WNW,292,4.0,8.0,89,0.00,,,0.00,meteohub,2013-01-06 15:42:00,
2013-01-06 09:47:00,46.8,44.1,30.35,WNW,303,2.0,9.0,90,0.00,,,0.00,meteohub,2013-01-06 15:47:00,
2013-01-06 09:57:00,47.5,44.1,30.35,NW,323,2.0,9.0,88,0.00,,,0.00,meteohub,2013-01-06 15:57:00,
2013-01-06 10:02:00,47.7,44.2,30.35,NW,314,3.0,7.0,88,0.00,,,0.00,meteohub,2013-01-06 16:02:00,
2013-01-06 10:07:00,47.8,44.2,30.35,NNW,338,6.0,7.0,87,0.00,,,0.00,meteohub,2013-01-06 16:07:00,
2013-01-06 10:12:00,47.8,44.4,30.35,NNW,338,3.0,9.0,88,0.00,,,0.00,meteohub,2013-01-06 16:12:00,
2013-01-06 10:17:00,48.4,44.4,30.34,NW,318,5.0,9.0,86,0.00,,,0.00,meteohub,2013-01-06 16:17:00,
2013-01-06 10:22:00,48.7,44.8,30.35,NNE,20,0.0,11.0,86,0.00,,,0.00,meteohub,2013-01-06 16:22:00,
2013-01-06 10:27:00,49.1,44.4,30.35,NNW,339,4.0,12.0,84,0.00,,,0.00,meteohub,2013-01-06 16:27:00,
2013-01-06 10:32:00,49.5,45.1,30.35,North,358,2.0,12.0,85,0.00,,,0.00,meteohub,2013-01-06 16:32:00,
2013-01-06 10:37:00,49.6,44.8,30.35,NW,326,7.0,12.0,83,0.00,,,0.00,meteohub,2013-01-06 16:37:00,
2013-01-06 10:42:00,49.6,44.8,30.35,NNW,334,5.0,11.0,83,0.00,,,0.00,meteohub,2013-01-06 16:42:00,
2013-01-06 10:47:00,49.6,44.1,30.34,NNE,12,5.0,12.0,81,0.00,,,0.00,meteohub,2013-01-06 16:47:00,
2013-01-06 10:57:00,50.5,45.0,30.34,ENE,57,5.0,14.0,81,0.00,,,0.00,meteohub,2013-01-06 16:57:00,
2013-01-06 11:02:00,51.1,45.9,30.34,ENE,60,3.0,12.0,82,0.00,,,0.00,meteohub,2013-01-06 17:02:00,
2013-01-06 11:07:00,51.1,44.8,30.34,North,349,10.0,12.0,79,0.00,,,0.00,meteohub,2013-01-06 17:07:00,
2013-01-06 11:12:00,51.4,45.5,30.33,NNW,330,10.0,13.0,80,0.00,,,0.00,meteohub,2013-01-06 17:12:00,
2013-01-06 11:17:00,51.6,45.3,30.33,NNW,336,6.0,13.0,79,0.00,,,0.00,meteohub,2013-01-06 17:17:00,
2013-01-06 11:22:00,51.8,45.5,30.33,ENE,58,12.0,14.0,79,0.00,,,0.00,meteohub,2013-01-06 17:22:00,
2013-01-06 11:27:00,52.3,45.7,30.32,North,357,7.0,15.0,78,0.00,,,0.00,meteohub,2013-01-06 17:27:00,
2013-01-06 11:32:00,52.5,45.1,30.32,NW,318,6.0,15.0,76,0.00,,,0.00,meteohub,2013-01-06 17:32:00,
2013-01-06 11:37:00,52.9,46.2,30.32,NNW,338,11.0,15.0,78,0.00,,,0.00,meteohub,2013-01-06 17:37:00,
2013-01-06 11:42:00,53.1,45.3,30.31,NW,314,6.0,14.0,75,0.00,,,0.00,meteohub,2013-01-06 17:42:00,
2013-01-06 11:47:00,53.2,45.5,30.31,NW,309,6.0,14.0,75,0.00,,,0.00,meteohub,2013-01-06 17:47:00,
2013-01-06 11:52:00,53.4,45.7,30.31,NNW,344,7.0,12.0,75,0.00,,,0.00,meteohub,2013-01-06 17:52:00,
2013-01-06 11:57:00,53.8,45.7,30.31,North,9,2.0,14.0,74,0.00,,,0.00,meteohub,2013-01-06 17:57:00,
2013-01-06 12:02:00,54.1,45.3,30.30,North,359,5.0,14.0,72,0.00,,,0.00,meteohub,2013-01-06 18:02:00,
2013-01-06 12:07:00,54.1,44.6,30.30,NW,326,8.0,14.0,70,0.00,,,0.00,meteohub,2013-01-06 18:07:00,
2013-01-06 12:12:00,54.3,44.1,30.30,NE,37,5.0,14.0,68,0.00,,,0.00,meteohub,2013-01-06 18:12:00,
2013-01-06 12:17:00,55.0,45.5,30.30,NNW,347,8.0,14.0,70,0.00,,,0.00,meteohub,2013-01-06 18:17:00,
2013-01-06 12:22:00,55.2,45.1,30.30,NNE,27,5.0,12.0,69,0.00,,,0.00,meteohub,2013-01-06 18:22:00,
2013-01-06 12:32:00,55.8,45.7,30.29,NNW,331,3.0,13.0,69,0.00,,,0.00,meteohub,2013-01-06 18:32:00,
2013-01-06 12:37:00,55.9,45.5,30.29,NNW,329,3.0,13.0,68,0.00,,,0.00,meteohub,2013-01-06 18:37:00,
2013-01-06 12:42:00,55.8,45.3,30.28,NE,51,5.0,13.0,68,0.00,,,0.00,meteohub,2013-01-06 18:42:00,
2013-01-06 12:47:00,55.9,44.8,30.28,NW,309,5.0,12.0,66,0.00,,,0.00,meteohub,2013-01-06 18:47:00,
2013-01-06 12:52:00,56.1,45.3,30.28,NE,54,3.0,12.0,67,0.00,,,0.00,meteohub,2013-01-06 18:52:00,
2013-01-06 12:57:00,56.5,45.3,30.28,NNW,340,2.0,12.0,66,0.00,,,0.00,meteohub,2013-01-06 18:57:00,
2013-01-06 13:02:00,56.3,44.6,30.27,NNE,32,2.0,10.0,65,0.00,,,0.00,meteohub,2013-01-06 19:02:00,
2013-01-06 13:07:00,56.5,45.3,30.27,NNW,334,3.0,10.0,66,0.00,,,0.00,meteohub,2013-01-06 19:07:00,
2013-01-06 13:12:00,56.5,44.4,30.26,North,8,5.0,9.0,64,0.00,,,0.00,meteohub,2013-01-06 19:12:00,
2013-01-06 13:17:00,56.3,44.6,30.26,North,4,0.0,11.0,65,0.00,,,0.00,meteohub,2013-01-06 19:17:00,
2013-01-06 13:22:00,56.5,44.1,30.26,NNW,334,3.0,12.0,63,0.00,,,0.00,meteohub,2013-01-06 19:22:00,
2013-01-06 13:27:00,56.5,44.1,30.26,NNW,334,6.0,12.0,63,0.00,,,0.00,meteohub,2013-01-06 19:27:00,
2013-01-06 13:37:00,56.7,45.5,30.25,WNW,288,1.0,13.0,66,0.00,,,0.00,meteohub,2013-01-06 19:37:00,
2013-01-06 13:42:00,57.0,45.3,30.25,WNW,292,0.0,13.0,65,0.00,,,0.00,meteohub,2013-01-06 19:42:00,
2013-01-06 13:47:00,57.2,45.1,30.25,NNE,30,4.0,13.0,64,0.00,,,0.00,meteohub,2013-01-06 19:47:00,
2013-01-06 13:55:00,57.6,45.5,30.25,WNW,301,5.0,13.0,64,0.00,,,0.00,meteohub,2013-01-06 19:55:00,
2013-01-06 14:02:00,57.6,45.1,30.25,NNW,330,3.0,12.0,63,0.00,,,0.00,meteohub,2013-01-06 20:02:00,
2013-01-06 14:10:00,57.6,44.2,30.25,NW,307,5.0,13.0,61,0.00,,,0.00,meteohub,2013-01-06 20:10:00,
2013-01-06 14:17:00,57.7,44.4,30.25,NNW,345,3.0,13.0,61,0.00,,,0.00,meteohub,2013-01-06 20:17:00,
2013-01-06 14:22:00,57.7,43.5,30.25,NE,45,4.0,12.0,59,0.00,,,0.00,meteohub,2013-01-06 20:22:00,
2013-01-06 14:27:00,57.6,43.3,30.25,NE,40,4.0,12.0,59,0.00,,,0.00,meteohub,2013-01-06 20:27:00,
2013-01-06 14:32:00,57.6,44.2,30.25,WNW,285,4.0,12.0,61,0.00,,,0.00,meteohub,2013-01-06 20:32:00,
2013-01-06 14:37:00,57.7,44.8,30.25,NNE,25,5.0,12.0,62,0.00,,,0.00,meteohub,2013-01-06 20:37:00,
2013-01-06 14:42:00,57.7,44.8,30.25,NW,314,2.0,11.0,62,0.00,,,0.00,meteohub,2013-01-06 20:42:00,
2013-01-06 14:47:00,57.7,44.4,30.25,North,11,7.0,10.0,61,0.00,,,0.00,meteohub,2013-01-06 20:47:00,
2013-01-06 14:52:00,57.9,44.6,30.25,NNW,338,1.0,10.0,61,0.00,,,0.00,meteohub,2013-01-06 20:52:00,
2013-01-06 15:02:00,58.5,44.6,30.25,WNW,299,2.0,10.0,60,0.00,,,0.00,meteohub,2013-01-06 21:02:00,
2013-01-06 15:07:00,58.6,44.4,30.25,NNE,19,0.0,8.0,59,0.00,,,0.00,meteohub,2013-01-06 21:07:00,
2013-01-06 15:12:00,58.8,44.1,30.25,NNW,343,3.0,9.0,58,0.00,,,0.00,meteohub,2013-01-06 21:12:00,
2013-01-06 15:17:00,58.6,43.0,30.25,NNW,331,4.0,9.0,56,0.00,,,0.00,meteohub,2013-01-06 21:17:00,
2013-01-06 15:22:00,58.3,43.5,30.25,NNW,345,5.0,12.0,58,0.00,,,0.00,meteohub,2013-01-06 21:22:00,
2013-01-06 15:27:00,57.9,43.7,30.25,East,79,6.0,12.0,59,0.00,,,0.00,meteohub,2013-01-06 21:27:00,
2013-01-06 15:32:00,58.3,44.1,30.25,North,9,4.0,12.0,59,0.00,,,0.00,meteohub,2013-01-06 21:32:00,
2013-01-06 15:37:00,58.1,43.9,30.25,NNW,336,3.0,10.0,59,0.00,,,0.00,meteohub,2013-01-06 21:37:00,
2013-01-06 15:42:00,58.3,44.1,30.25,NNW,330,2.0,10.0,59,0.00,,,0.00,meteohub,2013-01-06 21:42:00,
2013-01-06 15:47:00,58.3,44.1,30.25,NW,310,3.0,12.0,59,0.00,,,0.00,meteohub,2013-01-06 21:47:00,
2013-01-06 15:52:00,58.5,44.2,30.25,NW,319,2.0,12.0,59,0.00,,,0.00,meteohub,2013-01-06 21:52:00,
2013-01-06 15:57:00,58.5,43.7,30.25,NW,309,4.0,12.0,58,0.00,,,0.00,meteohub,2013-01-06 21:57:00,
2013-01-06 16:02:00,58.5,44.2,30.25,NNW,333,2.0,9.0,59,0.00,,,0.00,meteohub,2013-01-06 22:02:00,
2013-01-06 16:07:00,58.6,43.9,30.25,NNW,334,6.0,9.0,58,0.00,,,0.00,meteohub,2013-01-06 22:07:00,
2013-01-06 16:12:00,58.3,43.5,30.25,NW,314,2.0,8.0,58,0.00,,,0.00,meteohub,2013-01-06 22:12:00,
2013-01-06 16:17:00,58.3,43.5,30.25,West,278,2.0,8.0,58,0.00,,,0.00,meteohub,2013-01-06 22:17:00,
2013-01-06 16:22:00,58.3,44.1,30.25,NNW,333,3.0,8.0,59,0.00,,,0.00,meteohub,2013-01-06 22:22:00,
2013-01-06 16:27:00,58.3,44.1,30.25,NNW,338,4.0,8.0,59,0.00,,,0.00,meteohub,2013-01-06 22:27:00,
2013-01-06 16:32:00,58.3,44.1,30.25,NW,315,5.0,8.0,59,0.00,,,0.00,meteohub,2013-01-06 22:32:00,
2013-01-06 16:37:00,57.9,43.7,30.25,NW,310,4.0,8.0,59,0.00,,,0.00,meteohub,2013-01-06 22:37:00,
2013-01-06 16:42:00,57.9,43.7,30.26,NW,309,0.0,8.0,59,0.00,,,0.00,meteohub,2013-01-06 22:42:00,
2013-01-06 16:47:00,58.1,44.2,30.26,NW,307,0.0,8.0,60,0.00,,,0.00,meteohub,2013-01-06 22:47:00,
2013-01-06 16:52:00,57.9,43.7,30.27,NNW,327,2.0,7.0,59,0.00,,,0.00,meteohub,2013-01-06 22:52:00,
2013-01-06 16:57:00,57.9,43.7,30.27,North,6,2.0,6.0,59,0.00,,,0.00,meteohub,2013-01-06 22:57:00,
2013-01-06 17:02:00,57.7,43.5,30.27,NNW,333,3.0,6.0,59,0.00,,,0.00,meteohub,2013-01-06 23:02:00,
2013-01-06 17:07:00,57.6,43.3,30.27,NW,310,2.0,6.0,59,0.00,,,0.00,meteohub,2013-01-06 23:07:00,
2013-01-06 17:12:00,57.6,43.7,30.27,NW,326,0.0,5.0,60,0.00,,,0.00,meteohub,2013-01-06 23:12:00,
2013-01-06 17:22:00,56.8,43.5,30.27,NW,309,1.0,5.0,61,0.00,,,0.00,meteohub,2013-01-06 23:22:00,
2013-01-06 17:27:00,56.5,43.7,30.27,NNW,338,1.0,4.0,62,0.00,,,0.00,meteohub,2013-01-06 23:27:00,
2013-01-06 17:32:00,55.8,43.3,30.27,NNW,345,0.0,4.0,63,0.00,,,0.00,meteohub,2013-01-06 23:32:00,
2013-01-06 17:37:00,55.2,43.7,30.27,NNW,336,0.0,4.0,65,0.00,,,0.00,meteohub,2013-01-06 23:37:00,
2013-01-06 17:42:00,54.7,43.5,30.28,NNW,338,0.0,3.0,66,0.00,,,0.00,meteohub,2013-01-06 23:42:00,
2013-01-06 17:47:00,54.0,43.3,30.28,North,359,0.0,1.0,67,0.00,,,0.00,meteohub,2013-01-06 23:47:00,
2013-01-06 17:52:00,53.2,43.0,30.28,North,359,0.0,1.0,68,0.00,,,0.00,meteohub,2013-01-06 23:52:00,
2013-01-06 17:57:00,52.5,42.6,30.28,North,0,0.0,1.0,69,0.00,,,0.00,meteohub,2013-01-06 23:57:00,
2013-01-06 18:02:00,51.8,42.6,30.29,North,0,0.0,1.0,71,0.00,,,0.00,meteohub,2013-01-07 00:02:00,
2013-01-06 18:07:00,51.1,42.8,30.29,North,0,0.0,1.0,73,0.00,,,0.00,meteohub,2013-01-07 00:07:00,
2013-01-06 18:12:00,50.2,42.6,30.29,North,0,0.0,0.0,75,0.00,,,0.00,meteohub,2013-01-07 00:12:00,
2013-01-06 18:22:00,48.9,42.4,30.29,North,359,0.0,0.0,78,0.00,,,0.00,meteohub,2013-01-07 00:22:00,
2013-01-06 18:27:00,48.4,42.3,30.29,North,0,0.0,0.0,79,0.00,,,0.00,meteohub,2013-01-07 00:27:00,
2013-01-06 18:32:00,47.8,41.9,30.29,North,0,0.0,0.0,80,0.00,,,0.00,meteohub,2013-01-07 00:32:00,
2013-01-06 18:37:00,47.3,41.7,30.29,North,0,0.0,1.0,81,0.00,,,0.00,meteohub,2013-01-07 00:37:00,
2013-01-06 18:42:00,46.8,41.9,30.29,North,0,0.0,1.0,83,0.00,,,0.00,meteohub,2013-01-07 00:42:00,
2013-01-06 18:47:00,46.2,41.7,30.29,North,0,0.0,0.0,84,0.00,,,0.00,meteohub,2013-01-07 00:47:00,
2013-01-06 18:52:00,45.9,41.5,30.29,North,0,0.0,0.0,85,0.00,,,0.00,meteohub,2013-01-07 00:52:00,
2013-01-06 19:02:00,45.0,41.5,30.29,North,0,0.0,0.0,88,0.00,,,0.00,meteohub,2013-01-07 01:02:00,
2013-01-06 19:07:00,45.1,41.7,30.29,North,0,0.0,1.0,88,0.00,,,0.00,meteohub,2013-01-07 01:07:00,
2013-01-06 19:12:00,44.8,41.2,30.29,North,359,0.0,1.0,87,0.00,,,0.00,meteohub,2013-01-07 01:12:00,
2013-01-06 19:17:00,44.4,41.2,30.29,North,0,0.0,1.0,88,0.00,,,0.00,meteohub,2013-01-07 01:17:00,
2013-01-06 19:22:00,44.1,40.8,30.29,North,0,0.0,0.0,88,0.00,,,0.00,meteohub,2013-01-07 01:22:00,
2013-01-06 19:27:00,43.5,40.5,30.30,North,0,0.0,0.0,89,0.00,,,0.00,meteohub,2013-01-07 01:27:00,
2013-01-06 19:32:00,43.3,40.6,30.30,North,359,0.0,0.0,90,0.00,,,0.00,meteohub,2013-01-07 01:32:00,
2013-01-06 19:37:00,43.0,40.3,30.30,North,359,0.0,0.0,90,0.00,,,0.00,meteohub,2013-01-07 01:37:00,
2013-01-06 19:42:00,43.0,40.5,30.30,North,0,0.0,0.0,91,0.00,,,0.00,meteohub,2013-01-07 01:42:00,
2013-01-06 19:47:00,42.8,40.3,30.30,North,359,0.0,0.0,91,0.00,,,0.00,meteohub,2013-01-07 01:47:00,
2013-01-06 19:52:00,42.4,39.9,30.30,North,359,0.0,0.0,91,0.00,,,0.00,meteohub,2013-01-07 01:52:00,
2013-01-06 19:57:00,42.3,39.7,30.30,North,0,0.0,0.0,91,0.00,,,0.00,meteohub,2013-01-07 01:57:00,
2013-01-06 20:02:00,42.1,39.9,30.31,North,0,0.0,0.0,92,0.00,,,0.00,meteohub,2013-01-07 02:02:00,
2013-01-06 20:07:00,41.7,39.2,30.31,North,359,0.0,0.0,91,0.00,,,0.00,meteohub,2013-01-07 02:07:00,
2013-01-06 20:12:00,41.4,39.2,30.31,North,359,0.0,0.0,92,0.00,,,0.00,meteohub,2013-01-07 02:12:00,
2013-01-06 20:17:00,41.2,39.4,30.31,North,0,0.0,0.0,93,0.00,,,0.00,meteohub,2013-01-07 02:17:00,
2013-01-06 20:22:00,41.4,39.7,30.31,North,0,0.0,0.0,94,0.00,,,0.00,meteohub,2013-01-07 02:22:00,
2013-01-06 20:27:00,41.2,39.6,30.31,North,0,0.0,0.0,94,0.00,,,0.00,meteohub,2013-01-07 02:27:00,
2013-01-06 20:32:00,41.2,39.6,30.32,North,359,0.0,0.0,94,0.00,,,0.00,meteohub,2013-01-07 02:32:00,
2013-01-06 20:37:00,41.2,39.6,30.32,North,0,0.0,0.0,94,0.00,,,0.00,meteohub,2013-01-07 02:37:00,
2013-01-06 20:42:00,41.2,39.6,30.32,North,0,0.0,0.0,94,0.00,,,0.00,meteohub,2013-01-07 02:42:00,
2013-01-06 20:47:00,41.2,39.6,30.32,North,359,0.0,0.0,94,0.00,,,0.00,meteohub,2013-01-07 02:47:00,
2013-01-06 20:52:00,40.8,39.0,30.32,North,0,0.0,0.0,93,0.00,,,0.00,meteohub,2013-01-07 02:52:00,
2013-01-06 20:57:00,40.6,39.0,30.32,North,0,0.0,0.0,94,0.00,,,0.00,meteohub,2013-01-07 02:57:00,
2013-01-06 21:02:00,40.6,39.4,30.32,North,0,0.0,0.0,95,0.00,,,0.00,meteohub,2013-01-07 03:02:00,
2013-01-06 21:07:00,40.6,39.4,30.32,North,0,0.0,0.0,95,0.00,,,0.00,meteohub,2013-01-07 03:07:00,
2013-01-06 21:12:00,40.5,38.8,30.32,North,359,0.0,0.0,94,0.00,,,0.00,meteohub,2013-01-07 03:12:00,
2013-01-06 21:17:00,40.3,38.7,30.32,North,359,0.0,0.0,94,0.00,,,0.00,meteohub,2013-01-07 03:17:00,
2013-01-06 21:22:00,40.3,39.0,30.32,North,0,0.0,0.0,95,0.00,,,0.00,meteohub,2013-01-07 03:22:00,
2013-01-06 21:27:00,39.9,38.3,30.32,North,0,0.0,0.0,94,0.00,,,0.00,meteohub,2013-01-07 03:27:00,
2013-01-06 21:32:00,39.6,37.9,30.32,North,359,0.0,0.0,94,0.00,,,0.00,meteohub,2013-01-07 03:32:00,
2013-01-06 21:37:00,39.4,38.1,30.32,North,359,0.0,0.0,95,0.00,,,0.00,meteohub,2013-01-07 03:37:00,
2013-01-06 21:42:00,39.6,38.5,30.32,North,0,0.0,0.0,96,0.00,,,0.00,meteohub,2013-01-07 03:42:00,
2013-01-06 21:47:00,39.6,38.3,30.32,North,0,0.0,0.0,95,0.00,,,0.00,meteohub,2013-01-07 03:47:00,
2013-01-06 21:57:00,38.8,37.6,30.32,North,0,0.0,0.0,95,0.00,,,0.00,meteohub,2013-01-07 03:57:00,
2013-01-06 22:02:00,38.5,37.2,30.32,North,0,0.0,0.0,95,0.00,,,0.00,meteohub,2013-01-07 04:02:00,
2013-01-06 22:07:00,38.8,37.8,30.32,North,358,0.0,0.0,96,0.00,,,0.00,meteohub,2013-01-07 04:07:00,
2013-01-06 22:12:00,39.0,38.3,30.32,North,0,0.0,0.0,97,0.00,,,0.00,meteohub,2013-01-07 04:12:00,
2013-01-06 22:17:00,39.4,38.3,30.32,North,0,0.0,0.0,96,0.00,,,0.00,meteohub,2013-01-07 04:17:00,
2013-01-06 22:22:00,39.4,38.3,30.32,North,0,0.0,0.0,96,0.00,,,0.00,meteohub,2013-01-07 04:22:00,
2013-01-06 22:27:00,39.2,38.1,30.32,North,0,0.0,0.0,96,0.00,,,0.00,meteohub,2013-01-07 04:27:00,
2013-01-06 22:37:00,38.8,38.1,30.32,North,0,0.0,0.0,97,0.00,,,0.00,meteohub,2013-01-07 04:37:00,
2013-01-06 22:42:00,39.0,38.3,30.32,North,359,0.0,0.0,97,0.00,,,0.00,meteohub,2013-01-07 04:42:00,
2013-01-06 22:47:00,38.8,37.8,30.32,North,359,0.0,0.0,96,0.00,,,0.00,meteohub,2013-01-07 04:47:00,
2013-01-06 22:52:00,38.8,38.1,30.32,North,0,0.0,0.0,97,0.00,,,0.00,meteohub,2013-01-07 04:52:00,
2013-01-06 22:57:00,38.8,38.1,30.32,North,0,0.0,0.0,97,0.00,,,0.00,meteohub,2013-01-07 04:57:00,
2013-01-06 23:02:00,39.0,38.3,30.32,North,0,0.0,0.0,97,0.00,,,0.00,meteohub,2013-01-07 05:02:00,
2013-01-06 23:07:00,39.2,38.5,30.32,North,357,0.0,0.0,97,0.00,,,0.00,meteohub,2013-01-07 05:07:00,
2013-01-06 23:12:00,39.4,38.7,30.32,North,357,0.0,0.0,97,0.00,,,0.00,meteohub,2013-01-07 05:12:00,
2013-01-06 23:17:00,39.6,38.8,30.32,North,357,0.0,0.0,97,0.00,,,0.00,meteohub,2013-01-07 05:17:00,
2013-01-06 23:22:00,39.4,38.7,30.32,North,357,0.0,0.0,97,0.00,,,0.00,meteohub,2013-01-07 05:22:00,
2013-01-06 23:27:00,39.6,38.8,30.32,North,357,0.0,0.0,97,0.00,,,0.00,meteohub,2013-01-07 05:27:00,
2013-01-06 23:32:00,39.6,38.5,30.31,North,357,0.0,0.0,96,0.00,,,0.00,meteohub,2013-01-07 05:32:00,
2013-01-06 23:37:00,39.6,38.5,30.31,North,357,0.0,0.0,96,0.00,,,0.00,meteohub,2013-01-07 05:37:00,
2013-01-06 23:42:00,39.7,39.0,30.31,North,356,0.0,1.0,97,0.00,,,0.00,meteohub,2013-01-07 05:42:00,
2013-01-06 23:47:00,40.3,39.7,30.31,NNW,342,0.0,1.0,98,0.00,,,0.00,meteohub,2013-01-07 05:47:00,
2013-01-06 23:52:00,40.6,39.9,30.31,NNW,340,0.0,1.0,97,0.00,,,0.00,meteohub,2013-01-07 05:52:00,
2013-01-06 23:57:00,40.8,39.7,30.31,NNW,340,0.0,1.0,96,0.00,,,0.00,meteohub,2013-01-07 05:57:00,